createdAt,value
2023-05-12T00:00:19.575Z,74.87
2023-05-12T00:02:46.729Z,75.18
2023-05-12T00:05:13.648Z,75.72
2023-05-12T00:07:40.257Z,75.41
2023-05-12T00:10:07.205Z,75.32
2023-05-12T00:12:33.916Z,75.58
2023-05-12T00:15:01.273Z,75.78
2023-05-12T00:17:28.150Z,75.93
2023-05-12T00:23:48.667Z,75.68
2023-05-12T00:26:15.389Z,76.23
2023-05-12T00:28:43.453Z,75.72
2023-05-12T00:31:10.136Z,75.89
2023-05-12T00:33:36.902Z,76.06
2023-05-12T00:36:04.188Z,75.63
2023-05-12T00:38:30.827Z,75.67
2023-05-12T00:40:57.634Z,75.94
2023-05-12T00:43:24.337Z,75.63
2023-05-12T00:45:51.081Z,76.30
2023-05-12T00:48:18.249Z,75.87
2023-05-12T00:50:45.014Z,75.81
2023-05-12T00:53:12.755Z,76.15
2023-05-12T00:55:39.387Z,76.06
2023-05-12T00:58:06.368Z,76.03
2023-05-12T01:00:34.822Z,75.78
2023-05-12T01:03:01.779Z,76.19
2023-05-12T01:05:39.257Z,75.80
2023-05-12T01:08:06.316Z,75.79
2023-05-12T01:10:33.800Z,75.73
2023-05-12T01:13:00.417Z,75.48
2023-05-12T01:15:31.228Z,75.89
2023-05-12T01:18:02.301Z,75.47
2023-05-12T01:20:31.974Z,75.24
2023-05-12T01:22:59.420Z,75.22
2023-05-12T01:25:31.960Z,75.21
2023-05-12T01:28:01.456Z,75.36
2023-05-12T01:30:29.418Z,75.28
2023-05-12T01:32:56.761Z,75.69
2023-05-12T01:35:24.398Z,75.58
2023-05-12T01:37:58.717Z,75.57
2023-05-12T01:40:25.386Z,75.73
2023-05-12T01:42:52.353Z,75.92
2023-05-12T01:45:19.161Z,76.31
2023-05-12T01:47:47.094Z,76.13
2023-05-12T01:50:13.696Z,75.82
2023-05-12T01:52:40.588Z,75.60
2023-05-12T01:55:11.771Z,76.06
2023-05-12T01:57:54.026Z,75.35
2023-05-12T02:00:21.779Z,75.88
2023-05-12T02:02:50.893Z,75.91
2023-05-12T02:05:17.709Z,76.03
2023-05-12T02:07:48.308Z,76.11
2023-05-12T02:10:15.031Z,76.62
2023-05-12T02:12:41.670Z,77.48
2023-05-12T02:15:08.790Z,77.94
2023-05-12T02:17:39.349Z,77.30
2023-05-12T02:20:07.671Z,76.15
2023-05-12T02:22:34.307Z,76.38
2023-05-12T02:25:01.105Z,76.75
2023-05-12T02:27:27.855Z,76.08
2023-05-12T02:29:55.351Z,76.41
2023-05-12T02:32:22.601Z,76.25
2023-05-12T02:34:50.295Z,76.57
2023-05-12T02:37:17.058Z,76.53
2023-05-12T02:39:43.960Z,77.41
2023-05-12T02:42:10.850Z,77.44
2023-05-12T02:44:37.643Z,77.05
2023-05-12T02:47:04.793Z,76.81
2023-05-12T02:49:32.403Z,76.99
2023-05-12T02:51:59.212Z,76.44
2023-05-12T02:54:25.872Z,76.11
2023-05-12T02:56:53.272Z,76.59
2023-05-12T02:59:19.905Z,76.34
2023-05-12T03:01:46.528Z,76.58
2023-05-12T03:04:13.397Z,76.38
2023-05-12T03:06:40.990Z,77.16
2023-05-12T03:09:07.688Z,76.80
2023-05-12T03:11:34.765Z,77.10
2023-05-12T03:14:01.406Z,77.27
2023-05-12T03:16:28.519Z,77.64
2023-05-12T03:18:55.667Z,78.26
2023-05-12T03:21:22.384Z,77.79
2023-05-12T03:23:48.964Z,77.74
2023-05-12T03:26:15.586Z,77.69
2023-05-12T03:28:42.204Z,77.99
2023-05-12T03:31:08.938Z,77.06
2023-05-12T03:33:35.851Z,77.48
2023-05-12T03:36:02.544Z,77.24
2023-05-12T03:38:29.246Z,77.40
2023-05-12T03:41:06.473Z,77.41
2023-05-12T03:43:34.477Z,77.57
2023-05-12T03:46:01.195Z,77.10
2023-05-12T03:48:27.956Z,77.41
2023-05-12T03:50:54.590Z,77.07
2023-05-12T03:53:21.815Z,76.57
2023-05-12T03:55:48.445Z,76.27
2023-05-12T03:58:15.401Z,76.17
2023-05-12T04:00:42.158Z,76.11
2023-05-12T04:03:09.091Z,76.36
2023-05-12T04:05:37.856Z,75.99
2023-05-12T04:08:04.784Z,76.04
2023-05-12T04:10:31.580Z,76.17
2023-05-12T04:12:58.185Z,76.48
2023-05-12T04:15:25.366Z,76.28
2023-05-12T04:17:52.093Z,76.01
2023-05-12T04:20:19.626Z,76.15
2023-05-12T04:22:47.932Z,75.49
2023-05-12T04:25:14.788Z,75.26
2023-05-12T04:27:41.537Z,75.17
2023-05-12T04:30:08.865Z,75.05
2023-05-12T04:32:38.150Z,75.20
2023-05-12T04:35:06.209Z,74.41
2023-05-12T04:37:33.023Z,75.05
2023-05-12T04:39:59.678Z,74.61
2023-05-12T04:42:26.888Z,74.61
2023-05-12T04:44:53.797Z,74.47
2023-05-12T04:47:20.484Z,74.36
2023-05-12T04:49:47.282Z,74.71
2023-05-12T04:52:14.623Z,73.37
2023-05-12T04:54:41.310Z,73.61
2023-05-12T04:57:08.495Z,71.98
2023-05-12T04:59:36.112Z,71.73
2023-05-12T05:02:02.988Z,70.97
2023-05-12T05:04:29.756Z,69.41
2023-05-12T05:06:56.431Z,69.43
2023-05-12T05:09:23.738Z,69.42
2023-05-12T05:11:50.512Z,70.69
2023-05-12T05:14:17.285Z,70.80
2023-05-12T05:16:45.263Z,69.55
2023-05-12T05:19:21.618Z,69.59
2023-05-12T05:21:56.965Z,69.39
2023-05-12T05:24:23.718Z,69.64
2023-05-12T05:26:50.339Z,68.73
2023-05-12T05:29:17.842Z,69.06
2023-05-12T05:31:44.730Z,69.50
2023-05-12T05:34:11.583Z,70.28
2023-05-12T05:36:38.621Z,70.33
2023-05-12T05:39:05.298Z,70.58
2023-05-12T05:41:32.200Z,70.08
2023-05-12T05:43:59.210Z,69.96
2023-05-12T05:46:25.974Z,69.32
2023-05-12T05:48:52.861Z,69.53
2023-05-12T05:51:20.021Z,69.77
2023-05-12T05:53:46.726Z,69.42
2023-05-12T05:56:14.745Z,69.12
2023-05-12T05:58:41.781Z,67.65
2023-05-12T06:01:08.466Z,67.73
2023-05-12T06:03:36.117Z,68.77
2023-05-12T06:06:06.788Z,68.10
2023-05-12T06:08:33.434Z,69.24
2023-05-12T06:11:00.370Z,68.70
2023-05-12T06:13:27.010Z,69.50
2023-05-12T06:15:53.999Z,69.04
2023-05-12T06:18:22.670Z,68.82
2023-05-12T06:20:49.483Z,69.48
2023-05-12T06:23:16.200Z,69.02
2023-05-12T06:25:42.813Z,70.47
2023-05-12T06:28:09.459Z,69.85
2023-05-12T06:30:36.102Z,70.27
2023-05-12T06:33:02.746Z,70.05
2023-05-12T06:35:29.681Z,69.94
2023-05-12T06:37:56.335Z,69.95
2023-05-12T06:40:22.966Z,70.19
2023-05-12T06:42:50.130Z,69.57
2023-05-12T06:45:20.380Z,70.32
2023-05-12T06:47:47.428Z,69.33
2023-05-12T06:50:15.562Z,69.10
2023-05-12T06:52:43.132Z,69.23
2023-05-12T06:55:10.196Z,68.67
2023-05-12T06:57:37.372Z,67.84
2023-05-12T07:00:05.021Z,68.06
2023-05-12T07:02:31.823Z,68.04
2023-05-12T07:04:58.461Z,69.03
2023-05-12T07:07:25.096Z,68.79
2023-05-12T07:09:51.914Z,68.43
2023-05-12T07:12:18.674Z,68.77
2023-05-12T07:14:45.338Z,69.99
2023-05-12T07:17:11.979Z,68.56
2023-05-12T07:19:40.209Z,67.89
2023-05-12T07:22:07.106Z,67.42
2023-05-12T07:24:34.188Z,65.69
2023-05-12T07:27:00.897Z,64.31
2023-05-12T07:29:27.615Z,63.14
2023-05-12T07:31:54.298Z,62.96
2023-05-12T07:34:21.507Z,59.20
2023-05-12T07:36:48.332Z,57.11
2023-05-12T07:39:19.320Z,55.95
2023-05-12T07:41:46.039Z,56.88
2023-05-12T07:44:12.705Z,57.38
2023-05-12T07:46:39.413Z,56.31
2023-05-12T07:49:07.377Z,56.66
2023-05-12T07:51:34.069Z,56.47
2023-05-12T07:54:00.809Z,55.87
2023-05-12T07:56:27.438Z,54.87
2023-05-12T07:58:54.086Z,54.51
2023-05-12T08:01:20.926Z,54.34
2023-05-12T08:03:47.771Z,54.34
2023-05-12T08:06:14.628Z,54.04
2023-05-12T08:08:41.351Z,54.17
2023-05-12T08:11:08.082Z,54.96
2023-05-12T08:13:36.900Z,55.36
2023-05-12T08:16:03.950Z,55.75
2023-05-12T08:18:30.818Z,55.04
2023-05-12T08:20:57.554Z,55.60
2023-05-12T08:23:24.165Z,55.20
2023-05-12T08:25:50.937Z,55.19
2023-05-12T08:28:17.586Z,57.11
2023-05-12T08:30:45.173Z,56.10
2023-05-12T08:33:12.703Z,56.05
2023-05-12T08:35:39.945Z,54.00
2023-05-12T08:38:06.887Z,52.91
2023-05-12T08:40:41.670Z,54.32
2023-05-12T08:43:18.598Z,55.83
2023-05-12T08:45:46.461Z,56.73
2023-05-12T08:48:15.723Z,56.23
2023-05-12T08:50:43.076Z,57.09
2023-05-12T08:53:16.266Z,55.67
2023-05-12T08:55:54.392Z,56.04
2023-05-12T08:58:40.865Z,55.60
2023-05-12T09:01:08.845Z,56.14
2023-05-12T09:03:36.132Z,56.13
2023-05-12T09:06:05.563Z,56.66
2023-05-12T09:08:33.961Z,56.54
2023-05-12T09:11:01.987Z,57.10
2023-05-12T09:13:40.422Z,56.19
2023-05-12T09:16:12.159Z,54.55
2023-05-12T09:18:50.385Z,53.33
2023-05-12T09:21:17.175Z,52.03
2023-05-12T09:24:05.996Z,48.75
2023-05-12T09:26:45.224Z,51.79
2023-05-12T09:29:20.727Z,48.03
2023-05-12T09:31:58.603Z,49.70
2023-05-12T09:34:35.615Z,50.91
2023-05-12T09:37:05.855Z,51.55
2023-05-12T09:39:33.206Z,52.81
2023-05-12T09:42:00.128Z,53.70
2023-05-12T09:44:29.038Z,53.80
2023-05-12T09:46:55.995Z,53.16
2023-05-12T09:49:27.176Z,51.85
2023-05-12T09:51:56.607Z,51.89
2023-05-12T09:54:30.485Z,50.40
2023-05-12T09:57:00.369Z,52.38
2023-05-12T09:59:34.025Z,51.20
2023-05-12T10:02:01.682Z,50.49
2023-05-12T10:04:54.584Z,50.03
2023-05-12T10:07:24.545Z,50.06
2023-05-12T10:09:51.378Z,50.33
2023-05-12T10:12:18.204Z,50.65
2023-05-12T10:14:46.544Z,49.93
2023-05-12T10:17:14.077Z,50.18
2023-05-12T10:19:42.023Z,49.60
2023-05-12T10:22:11.647Z,48.82
2023-05-12T10:24:40.830Z,47.89
2023-05-12T10:27:08.219Z,47.30
2023-05-12T10:29:35.674Z,48.05
2023-05-12T10:32:02.296Z,46.75
2023-05-12T10:34:37.565Z,47.58
2023-05-12T10:37:09.021Z,48.73
2023-05-12T10:39:36.114Z,46.59
2023-05-12T10:42:09.661Z,47.20
2023-05-12T10:44:36.924Z,46.99
2023-05-12T10:47:14.691Z,47.73
2023-05-12T10:49:41.849Z,48.03
2023-05-12T10:52:11.403Z,46.93
2023-05-12T10:54:44.736Z,47.33
2023-05-12T10:57:16.807Z,47.41
2023-05-12T10:59:50.357Z,47.47
2023-05-12T11:02:19.953Z,48.35
2023-05-12T11:04:58.313Z,48.34
2023-05-12T11:07:30.508Z,48.98
2023-05-12T11:10:02.221Z,49.75
2023-05-12T11:12:36.563Z,50.22
2023-05-12T11:15:05.299Z,51.58
2023-05-12T11:17:32.487Z,53.11
2023-05-12T11:20:01.261Z,51.33
2023-05-12T11:22:28.565Z,51.55
2023-05-12T11:24:55.376Z,49.33
2023-05-12T11:27:23.653Z,48.38
2023-05-12T11:30:02.824Z,46.81
2023-05-12T11:32:29.989Z,48.85
2023-05-12T11:35:14.235Z,47.61
2023-05-12T11:37:41.598Z,49.22
2023-05-12T11:40:20.031Z,48.84
2023-05-12T11:42:52.832Z,49.77
2023-05-12T11:45:28.810Z,48.02
2023-05-12T11:48:14.034Z,49.58
2023-05-12T11:50:48.702Z,48.70
2023-05-12T11:53:18.548Z,48.06
2023-05-12T11:55:54.278Z,50.03
2023-05-12T11:58:27.185Z,48.66
2023-05-12T12:00:54.754Z,49.26
2023-05-12T12:03:21.607Z,49.50
2023-05-12T12:06:10.746Z,48.34
2023-05-12T12:08:40.663Z,48.11
2023-05-12T12:11:07.544Z,48.93
2023-05-12T12:13:34.139Z,47.49
2023-05-12T12:16:00.919Z,48.66
2023-05-12T12:18:27.715Z,47.47
2023-05-12T12:20:54.351Z,47.47
2023-05-12T12:23:21.140Z,46.22
2023-05-12T12:25:47.853Z,46.94
2023-05-12T12:28:14.792Z,48.66
2023-05-12T12:30:41.472Z,48.94
2023-05-12T12:33:08.410Z,49.26
2023-05-12T12:35:35.111Z,48.13
2023-05-12T12:38:01.798Z,47.58
2023-05-12T12:40:28.544Z,47.26
2023-05-12T12:42:55.285Z,46.97
2023-05-12T12:45:22.250Z,46.66
2023-05-12T12:47:52.539Z,48.56
2023-05-12T12:50:19.202Z,48.10
2023-05-12T12:52:45.949Z,47.77
2023-05-12T12:55:13.149Z,47.62
2023-05-12T12:57:39.727Z,46.81
2023-05-12T13:00:08.581Z,46.45
2023-05-12T13:02:35.712Z,44.31
2023-05-12T13:05:04.230Z,45.83
2023-05-12T13:07:30.891Z,46.50
2023-05-12T13:09:57.810Z,44.76
2023-05-12T13:12:24.598Z,45.69
2023-05-12T13:14:51.274Z,46.41
2023-05-12T13:17:17.912Z,46.97
2023-05-12T13:19:44.453Z,46.65
2023-05-12T13:22:11.152Z,45.03
2023-05-12T13:24:38.134Z,44.77
2023-05-12T13:27:08.308Z,44.85
2023-05-12T13:29:35.867Z,45.75
2023-05-12T13:32:06.296Z,44.70
2023-05-12T13:34:34.508Z,44.10
2023-05-12T13:37:01.222Z,43.54
2023-05-12T13:39:27.989Z,42.30
2023-05-12T13:43:05.801Z,44.25
2023-05-12T13:45:32.353Z,42.88
2023-05-12T13:47:59.514Z,42.50
2023-05-12T13:50:26.180Z,42.95
2023-05-12T13:52:52.842Z,44.04
2023-05-12T13:55:21.748Z,43.90
2023-05-12T13:57:49.102Z,43.00
2023-05-12T14:00:17.290Z,44.45
2023-05-12T14:02:47.420Z,43.14
2023-05-12T14:05:14.273Z,42.74
2023-05-12T14:07:42.574Z,42.71
2023-05-12T14:10:12.657Z,42.60
2023-05-12T14:12:41.211Z,41.17
2023-05-12T14:15:29.213Z,43.56
2023-05-12T14:17:55.623Z,43.80
2023-05-12T14:20:22.222Z,42.24
2023-05-12T14:23:14.472Z,42.99
2023-05-12T14:25:41.157Z,44.79
2023-05-12T14:29:12.282Z,45.03
2023-05-12T14:31:38.989Z,44.90
2023-05-12T14:34:05.704Z,45.57
2023-05-12T14:36:32.337Z,44.88
2023-05-12T14:38:58.920Z,45.17
2023-05-12T14:41:25.748Z,46.10
2023-05-12T14:43:52.305Z,45.53
2023-05-12T14:46:18.974Z,45.39
2023-05-12T14:48:45.670Z,44.29
2023-05-12T14:51:12.247Z,44.16
2023-05-12T14:53:38.831Z,43.95
2023-05-12T14:56:06.166Z,42.62
2023-05-12T14:58:32.772Z,43.58
2023-05-12T15:01:01.801Z,43.18
2023-05-12T15:03:28.958Z,41.53
2023-05-12T15:06:05.592Z,41.88
2023-05-12T15:08:33.512Z,41.22
2023-05-12T15:11:00.206Z,40.04
2023-05-12T15:13:27.101Z,41.01
2023-05-12T15:15:55.370Z,40.31
2023-05-12T15:18:23.885Z,40.98
2023-05-12T15:20:53.554Z,39.47
2023-05-12T15:23:20.467Z,39.59
2023-05-12T15:25:50.462Z,40.78
2023-05-12T15:28:17.676Z,41.46
2023-05-12T15:30:46.259Z,41.84
2023-05-12T15:33:13.242Z,42.71
2023-05-12T15:35:40.743Z,41.11
2023-05-12T15:38:07.476Z,41.66
